Accueil
METAR-TAF:

METAR-TAF

Aéroports :

Rodez, France

Aéroport de Rodez-Aveyron, Marcillac

latitude: 44-24N, longitude: 002-29E, altitude: 581 m

Observation

Le bulletin a été fait il y a 38 minutes, à 09:00 UTC
Vent 6 kt de est/sud-est, variant entre est et sud-est
Température 19°C
Humidité 49%
Pression 1027 hPa
Visibilité 10 km ou plus
pas de nuages en-dessous de 1500 mètres et pas de cumulonimbus.

METAR: LFCR 190900Z AUTO 11006KT 080V140 CAVOK 19/08 Q1027 NOSIG

Heure: 11:38 (09:38 UTC)

Prévision

Le bulletin a été fait il y a 4 heures et 38 minutes, à 05:00 UTC
Prévision valable du 19 à 06 UTC au 20 à 06 UTC
Vent 10 kt de sud-est
Visibilité 10 km ou plus
pas de nuages en-dessous de 1500 mètres et pas de cumulonimbus.
Evoluant progressivement
du 19 à 18 UTC au 19 à 20 UTC
Vent 5 kt de est

TAF: LFCR 190500Z 1906/2006 13010KT CAVOK BECMG 1918/1920 10005KT

Observations et prévisions météorologiques de plus de 4000 aéroports (messages METAR et TAF).

Les stations disponibles sont représentées par des disques jaunes et rouges sur la carte.

Passer la souris dessus pour voir le nom de la station.

Cliquer dessus pour voir les observations et prévisions météorologiques.

Pour changer de carte: cliquez sur les boutons verts avec une croix noire pour zoomer, sur le bouton vert avec un tiret pour effectuer un zoom arrière, ou sur les flèches vertes pour les cartes adjacentes.


METAR-TAF: